sensor_id;sensor_type;location;lat;lon;timestamp;noise_LAeq;noise_LA_min;noise_LA_max;noise_LA01;noise_LA95
71805;Laerm;59654;52.216;5.616;2023-12-14T00:00:30;42.31;31.48;57.25;;
71805;Laerm;59654;52.216;5.616;2023-12-14T00:01:01;42.23;31.76;57.37;;
71805;Laerm;59654;52.216;5.616;2023-12-14T00:01:32;42.44;32.49;59.41;;
71805;Laerm;59654;52.216;5.616;2023-12-14T00:02:03;43.43;32.55;57.55;;
71805;Laerm;59654;52.216;5.616;2023-12-14T00:02:34;42.44;32.15;57.63;;
71805;Laerm;59654;52.216;5.616;2023-12-14T00:03:05;43.49;32.01;60.61;;
71805;Laerm;59654;52.216;5.616;2023-12-14T00:03:36;43.17;31.69;57.63;;
71805;Laerm;59654;52.216;5.616;2023-12-14T00:04:07;42.72;32.21;57.62;;
71805;Laerm;59654;52.216;5.616;2023-12-14T00:04:38;42.69;32.24;60.31;;
71805;Laerm;59654;52.216;5.616;2023-12-14T00:05:09;43.78;32.21;57.66;;
71805;Laerm;59654;52.216;5.616;2023-12-14T00:05:39;41.44;33.25;57.55;;
71805;Laerm;59654;52.216;5.616;2023-12-14T00:06:11;43.84;32.61;57.60;;
71805;Laerm;59654;52.216;5.616;2023-12-14T00:06:42;43.02;33.77;57.40;;
71805;Laerm;59654;52.216;5.616;2023-12-14T00:07:13;42.44;34.05;57.40;;
71805;Laerm;59654;52.216;5.616;2023-12-14T00:07:45;43.95;34.01;57.46;;
71805;Laerm;59654;52.216;5.616;2023-12-14T00:08:16;43.79;33.94;57.43;;
71805;Laerm;59654;52.216;5.616;2023-12-14T00:08:47;44.12;35.44;57.58;;
71805;Laerm;59654;52.216;5.616;2023-12-14T00:09:18;44.03;35.76;57.57;;
71805;Laerm;59654;52.216;5.616;2023-12-14T00:09:49;43.95;33.26;60.81;;
71805;Laerm;59654;52.216;5.616;2023-12-14T00:10:19;41.67;32.46;57.86;;
71805;Laerm;59654;52.216;5.616;2023-12-14T00:10:51;42.28;32.52;57.80;;
71805;Laerm;59654;52.216;5.616;2023-12-14T00:11:21;42.61;32.30;59.78;;
71805;Laerm;59654;52.216;5.616;2023-12-14T00:11:52;43.24;32.41;58.37;;
71805;Laerm;59654;52.216;5.616;2023-12-14T00:12:23;42.38;32.71;57.74;;
71805;Laerm;59654;52.216;5.616;2023-12-14T00:12:54;44.07;33.23;57.75;;
71805;Laerm;59654;52.216;5.616;2023-12-14T00:13:25;43.52;32.59;57.74;;
71805;Laerm;59654;52.216;5.616;2023-12-14T00:13:56;43.54;32.91;59.29;;
71805;Laerm;59654;52.216;5.616;2023-12-14T00:14:27;43.77;34.74;57.80;;
71805;Laerm;59654;52.216;5.616;2023-12-14T00:14:58;42.42;32.55;57.91;;
71805;Laerm;59654;52.216;5.616;2023-12-14T00:15:28;43.41;32.00;59.65;;
71805;Laerm;59654;52.216;5.616;2023-12-14T00:16:00;43.33;32.18;57.92;;
71805;Laerm;59654;52.216;5.616;2023-12-14T00:16:31;42.86;31.89;60.18;;
71805;Laerm;59654;52.216;5.616;2023-12-14T00:17:01;43.38;31.96;60.72;;
71805;Laerm;59654;52.216;5.616;2023-12-14T00:17:32;42.67;32.02;57.89;;
71805;Laerm;59654;52.216;5.616;2023-12-14T00:18:03;40.64;31.97;57.77;;
71805;Laerm;59654;52.216;5.616;2023-12-14T00:18:35;46.15;34.57;58.37;;
71805;Laerm;59654;52.216;5.616;2023-12-14T00:19:06;45.84;36.85;58.99;;
71805;Laerm;59654;52.216;5.616;2023-12-14T00:19:37;44.48;34.99;57.97;;
71805;Laerm;59654;52.216;5.616;2023-12-14T00:20:08;44.38;33.11;58.04;;
71805;Laerm;59654;52.216;5.616;2023-12-14T00:20:39;44.29;31.88;58.48;;
71805;Laerm;59654;52.216;5.616;2023-12-14T00:21:10;43.31;31.99;61.06;;
71805;Laerm;59654;52.216;5.616;2023-12-14T00:21:41;42.77;32.20;57.82;;
71805;Laerm;59654;52.216;5.616;2023-12-14T00:22:12;42.54;32.90;57.65;;
71805;Laerm;59654;52.216;5.616;2023-12-14T00:22:43;42.40;32.66;57.65;;
71805;Laerm;59654;52.216;5.616;2023-12-14T00:23:13;43.31;31.88;60.22;;
71805;Laerm;59654;52.216;5.616;2023-12-14T00:23:44;43.07;32.65;58.21;;
71805;Laerm;59654;52.216;5.616;2023-12-14T00:24:17;42.53;32.12;59.50;;
71805;Laerm;59654;52.216;5.616;2023-12-14T00:24:47;42.47;32.61;57.72;;
71805;Laerm;59654;52.216;5.616;2023-12-14T00:25:18;43.06;32.08;57.77;;
71805;Laerm;59654;52.216;5.616;2023-12-14T00:25:50;42.66;31.55;60.91;;
71805;Laerm;59654;52.216;5.616;2023-12-14T00:26:22;42.03;31.70;57.87;;
71805;Laerm;59654;52.216;5.616;2023-12-14T00:26:53;42.81;31.93;57.85;;
71805;Laerm;59654;52.216;5.616;2023-12-14T00:27:24;43.19;32.46;57.75;;
71805;Laerm;59654;52.216;5.616;2023-12-14T00:27:56;42.71;32.09;57.75;;
71805;Laerm;59654;52.216;5.616;2023-12-14T00:28:27;42.09;32.04;57.86;;
71805;Laerm;59654;52.216;5.616;2023-12-14T00:28:58;43.15;31.90;59.17;;
71805;Laerm;59654;52.216;5.616;2023-12-14T00:29:28;41.11;31.80;57.54;;
71805;Laerm;59654;52.216;5.616;2023-12-14T00:29:59;41.15;31.97;57.65;;
71805;Laerm;59654;52.216;5.616;2023-12-14T00:30:31;42.41;31.89;57.86;;
71805;Laerm;59654;52.216;5.616;2023-12-14T00:31:02;43.10;31.74;57.62;;
71805;Laerm;59654;52.216;5.616;2023-12-14T00:31:33;42.95;31.71;61.20;;
71805;Laerm;59654;52.216;5.616;2023-12-14T00:32:05;43.01;33.19;57.51;;
71805;Laerm;59654;52.216;5.616;2023-12-14T00:32:35;42.45;33.07;57.85;;
71805;Laerm;59654;52.216;5.616;2023-12-14T00:33:06;41.88;31.91;57.54;;
71805;Laerm;59654;52.216;5.616;2023-12-14T00:33:37;42.61;31.41;57.42;;
71805;Laerm;59654;52.216;5.616;2023-12-14T00:34:08;41.50;31.56;57.40;;
71805;Laerm;59654;52.216;5.616;2023-12-14T00:34:39;41.79;31.40;57.39;;
71805;Laerm;59654;52.216;5.616;2023-12-14T00:35:11;42.47;32.58;57.44;;
71805;Laerm;59654;52.216;5.616;2023-12-14T00:35:41;42.24;32.93;57.60;;
71805;Laerm;59654;52.216;5.616;2023-12-14T00:36:18;41.31;32.34;57.97;;
71805;Laerm;59654;52.216;5.616;2023-12-14T00:36:49;42.07;31.76;57.62;;
71805;Laerm;59654;52.216;5.616;2023-12-14T00:37:20;42.80;31.92;57.70;;
71805;Laerm;59654;52.216;5.616;2023-12-14T00:37:51;43.00;31.84;57.73;;
71805;Laerm;59654;52.216;5.616;2023-12-14T00:38:22;43.42;31.89;58.69;;
71805;Laerm;59654;52.216;5.616;2023-12-14T00:38:52;42.47;31.99;58.89;;
71805;Laerm;59654;52.216;5.616;2023-12-14T00:39:24;42.30;31.76;60.50;;
71805;Laerm;59654;52.216;5.616;2023-12-14T00:39:55;42.80;31.83;60.90;;
71805;Laerm;59654;52.216;5.616;2023-12-14T00:40:26;41.22;31.54;57.77;;
71805;Laerm;59654;52.216;5.616;2023-12-14T00:40:56;43.57;31.89;57.79;;
71805;Laerm;59654;52.216;5.616;2023-12-14T00:41:27;44.62;31.92;62.56;;
71805;Laerm;59654;52.216;5.616;2023-12-14T00:41:58;42.33;33.01;57.77;;
71805;Laerm;59654;52.216;5.616;2023-12-14T00:42:29;42.24;33.12;58.97;;
71805;Laerm;59654;52.216;5.616;2023-12-14T00:43:00;41.70;32.63;57.73;;
71805;Laerm;59654;52.216;5.616;2023-12-14T00:43:30;43.18;32.69;60.73;;
71805;Laerm;59654;52.216;5.616;2023-12-14T00:44:01;44.18;32.44;59.28;;
71805;Laerm;59654;52.216;5.616;2023-12-14T00:44:34;41.85;32.00;57.66;;
71805;Laerm;59654;52.216;5.616;2023-12-14T00:45:05;40.65;31.56;57.69;;
71805;Laerm;59654;52.216;5.616;2023-12-14T00:45:36;41.62;31.52;57.70;;
71805;Laerm;59654;52.216;5.616;2023-12-14T00:46:07;42.84;31.47;60.17;;
71805;Laerm;59654;52.216;5.616;2023-12-14T00:46:39;42.27;31.60;60.06;;
71805;Laerm;59654;52.216;5.616;2023-12-14T00:47:13;41.64;31.22;57.39;;
71805;Laerm;59654;52.216;5.616;2023-12-14T00:47:44;41.47;31.49;59.82;;
71805;Laerm;59654;52.216;5.616;2023-12-14T00:48:15;41.67;31.47;59.27;;
71805;Laerm;59654;52.216;5.616;2023-12-14T00:48:46;41.23;31.15;57.29;;
71805;Laerm;59654;52.216;5.616;2023-12-14T00:49:17;42.32;31.63;57.30;;
71805;Laerm;59654;52.216;5.616;2023-12-14T00:49:50;41.40;31.57;60.13;;
71805;Laerm;59654;52.216;5.616;2023-12-14T00:50:20;43.23;34.01;59.43;;
71805;Laerm;59654;52.216;5.616;2023-12-14T00:50:51;41.93;32.40;57.63;;
71805;Laerm;59654;52.216;5.616;2023-12-14T00:51:23;43.40;32.99;59.12;;
71805;Laerm;59654;52.216;5.616;2023-12-14T00:51:54;42.99;32.08;57.94;;
71805;Laerm;59654;52.216;5.616;2023-12-14T00:52:25;41.96;31.69;57.80;;
71805;Laerm;59654;52.216;5.616;2023-12-14T00:52:59;43.59;33.25;57.76;;
71805;Laerm;59654;52.216;5.616;2023-12-14T00:53:29;42.45;31.50;61.20;;
71805;Laerm;59654;52.216;5.616;2023-12-14T00:54:00;42.22;31.67;61.10;;
71805;Laerm;59654;52.216;5.616;2023-12-14T00:54:31;43.30;31.97;60.92;;
71805;Laerm;59654;52.216;5.616;2023-12-14T00:55:02;41.67;32.09;57.81;;
71805;Laerm;59654;52.216;5.616;2023-12-14T00:55:33;43.62;32.16;57.75;;
71805;Laerm;59654;52.216;5.616;2023-12-14T00:56:06;42.66;31.68;57.79;;
71805;Laerm;59654;52.216;5.616;2023-12-14T00:56:37;43.01;31.34;60.58;;
71805;Laerm;59654;52.216;5.616;2023-12-14T00:57:08;42.69;31.16;57.67;;
71805;Laerm;59654;52.216;5.616;2023-12-14T00:57:39;41.76;31.61;57.66;;
71805;Laerm;59654;52.216;5.616;2023-12-14T00:58:10;42.44;31.65;57.64;;
71805;Laerm;59654;52.216;5.616;2023-12-14T00:58:43;41.78;31.23;57.65;;
71805;Laerm;59654;52.216;5.616;2023-12-14T00:59:14;43.51;31.57;59.05;;
71805;Laerm;59654;52.216;5.616;2023-12-14T00:59:45;42.91;31.57;57.79;;
71805;Laerm;59654;52.216;5.616;2023-12-14T01:00:16;42.36;32.07;57.61;;
71805;Laerm;59654;52.216;5.616;2023-12-14T01:00:47;43.53;32.43;57.75;;
71805;Laerm;59654;52.216;5.616;2023-12-14T01:01:18;43.10;32.28;57.78;;
71805;Laerm;59654;52.216;5.616;2023-12-14T01:01:48;44.10;32.37;60.55;;
71805;Laerm;59654;52.216;5.616;2023-12-14T01:02:19;43.90;31.77;57.96;;
71805;Laerm;59654;52.216;5.616;2023-12-14T01:02:50;44.19;31.96;58.17;;
71805;Laerm;59654;52.216;5.616;2023-12-14T01:03:21;44.63;31.36;60.40;;
71805;Laerm;59654;52.216;5.616;2023-12-14T01:03:52;44.06;31.63;57.95;;
71805;Laerm;59654;52.216;5.616;2023-12-14T01:04:23;43.77;31.51;60.45;;
71805;Laerm;59654;52.216;5.616;2023-12-14T01:04:55;43.66;32.47;58.04;;
71805;Laerm;59654;52.216;5.616;2023-12-14T01:05:27;43.20;31.95;58.03;;
71805;Laerm;59654;52.216;5.616;2023-12-14T01:05:58;43.64;31.65;57.98;;
71805;Laerm;59654;52.216;5.616;2023-12-14T01:06:30;43.93;31.68;57.90;;
71805;Laerm;59654;52.216;5.616;2023-12-14T01:07:01;41.94;31.81;57.88;;
71805;Laerm;59654;52.216;5.616;2023-12-14T01:07:33;41.04;31.23;57.85;;
71805;Laerm;59654;52.216;5.616;2023-12-14T01:08:04;43.29;31.16;57.63;;
71805;Laerm;59654;52.216;5.616;2023-12-14T01:08:35;42.55;31.59;59.21;;
71805;Laerm;59654;52.216;5.616;2023-12-14T01:09:05;42.63;31.56;58.90;;
71805;Laerm;59654;52.216;5.616;2023-12-14T01:09:37;42.38;31.87;58.75;;
71805;Laerm;59654;52.216;5.616;2023-12-14T01:10:09;42.68;31.72;59.85;;
71805;Laerm;59654;52.216;5.616;2023-12-14T01:10:40;41.41;31.73;57.46;;
71805;Laerm;59654;52.216;5.616;2023-12-14T01:11:12;43.14;31.78;57.55;;
71805;Laerm;59654;52.216;5.616;2023-12-14T01:11:43;43.03;31.29;58.17;;
71805;Laerm;59654;52.216;5.616;2023-12-14T01:12:14;42.11;31.55;57.56;;
71805;Laerm;59654;52.216;5.616;2023-12-14T01:12:45;42.95;32.37;60.53;;
71805;Laerm;59654;52.216;5.616;2023-12-14T01:13:16;42.70;31.79;57.42;;
71805;Laerm;59654;52.216;5.616;2023-12-14T01:13:47;42.44;32.07;57.43;;
71805;Laerm;59654;52.216;5.616;2023-12-14T01:14:17;43.19;33.35;57.39;;
71805;Laerm;59654;52.216;5.616;2023-12-14T01:14:51;42.49;31.24;57.35;;
71805;Laerm;59654;52.216;5.616;2023-12-14T01:15:21;42.70;31.44;59.73;;
71805;Laerm;59654;52.216;5.616;2023-12-14T01:15:55;41.81;31.66;59.13;;
71805;Laerm;59654;52.216;5.616;2023-12-14T01:16:26;41.94;31.70;57.34;;
71805;Laerm;59654;52.216;5.616;2023-12-14T01:16:58;41.85;31.81;57.45;;
71805;Laerm;59654;52.216;5.616;2023-12-14T01:17:30;42.55;31.60;57.57;;
71805;Laerm;59654;52.216;5.616;2023-12-14T01:18:01;43.66;31.99;57.98;;
71805;Laerm;59654;52.216;5.616;2023-12-14T01:18:32;44.33;31.76;58.00;;
71805;Laerm;59654;52.216;5.616;2023-12-14T01:19:04;42.32;31.63;57.58;;
71805;Laerm;59654;52.216;5.616;2023-12-14T01:19:40;43.83;32.14;60.30;;
71805;Laerm;59654;52.216;5.616;2023-12-14T01:20:11;42.50;31.66;57.47;;
71805;Laerm;59654;52.216;5.616;2023-12-14T01:20:44;41.78;31.49;57.47;;
71805;Laerm;59654;52.216;5.616;2023-12-14T01:21:16;42.72;31.55;57.44;;
71805;Laerm;59654;52.216;5.616;2023-12-14T01:21:48;42.56;31.45;57.86;;
71805;Laerm;59654;52.216;5.616;2023-12-14T01:22:20;41.35;31.67;58.78;;
71805;Laerm;59654;52.216;5.616;2023-12-14T01:22:52;43.49;31.73;57.39;;
71805;Laerm;59654;52.216;5.616;2023-12-14T01:23:23;42.81;31.89;58.55;;
71805;Laerm;59654;52.216;5.616;2023-12-14T01:23:54;42.38;32.06;57.69;;
71805;Laerm;59654;52.216;5.616;2023-12-14T01:24:25;42.31;31.51;57.60;;
71805;Laerm;59654;52.216;5.616;2023-12-14T01:24:56;42.50;31.56;59.93;;
71805;Laerm;59654;52.216;5.616;2023-12-14T01:25:26;41.47;31.78;57.54;;
71805;Laerm;59654;52.216;5.616;2023-12-14T01:25:57;40.42;31.75;57.66;;
71805;Laerm;59654;52.216;5.616;2023-12-14T01:26:28;41.88;31.78;57.64;;
71805;Laerm;59654;52.216;5.616;2023-12-14T01:26:59;42.90;31.46;57.66;;
71805;Laerm;59654;52.216;5.616;2023-12-14T01:27:30;42.23;31.46;57.66;;
71805;Laerm;59654;52.216;5.616;2023-12-14T01:28:01;43.40;32.23;59.64;;
71805;Laerm;59654;52.216;5.616;2023-12-14T01:28:32;42.55;32.85;57.54;;
71805;Laerm;59654;52.216;5.616;2023-12-14T01:29:03;41.96;32.88;58.79;;
71805;Laerm;59654;52.216;5.616;2023-12-14T01:29:33;42.54;31.94;57.61;;
71805;Laerm;59654;52.216;5.616;2023-12-14T01:30:05;42.28;31.60;57.47;;
71805;Laerm;59654;52.216;5.616;2023-12-14T01:30:36;43.08;31.44;57.51;;
71805;Laerm;59654;52.216;5.616;2023-12-14T01:31:07;40.15;31.46;57.52;;
71805;Laerm;59654;52.216;5.616;2023-12-14T01:31:38;42.90;31.46;57.56;;
71805;Laerm;59654;52.216;5.616;2023-12-14T01:32:09;42.46;31.39;59.80;;
71805;Laerm;59654;52.216;5.616;2023-12-14T01:32:39;42.44;31.64;59.82;;
71805;Laerm;59654;52.216;5.616;2023-12-14T01:33:10;42.30;31.26;57.60;;
71805;Laerm;59654;52.216;5.616;2023-12-14T01:33:41;42.27;31.31;57.58;;
71805;Laerm;59654;52.216;5.616;2023-12-14T01:34:12;41.53;31.06;57.57;;
71805;Laerm;59654;52.216;5.616;2023-12-14T01:34:43;42.95;31.12;57.48;;
71805;Laerm;59654;52.216;5.616;2023-12-14T01:35:13;42.30;31.34;57.42;;
71805;Laerm;59654;52.216;5.616;2023-12-14T01:35:44;41.77;31.42;57.45;;
71805;Laerm;59654;52.216;5.616;2023-12-14T01:36:22;41.98;31.42;57.40;;
71805;Laerm;59654;52.216;5.616;2023-12-14T01:36:53;41.90;31.31;57.36;;
71805;Laerm;59654;52.216;5.616;2023-12-14T01:37:24;41.79;31.31;57.35;;
71805;Laerm;59654;52.216;5.616;2023-12-14T01:37:55;41.72;31.16;57.36;;
71805;Laerm;59654;52.216;5.616;2023-12-14T01:38:26;43.42;31.60;59.56;;
71805;Laerm;59654;52.216;5.616;2023-12-14T01:38:57;42.06;31.49;57.37;;
71805;Laerm;59654;52.216;5.616;2023-12-14T01:39:27;43.13;31.40;57.33;;
71805;Laerm;59654;52.216;5.616;2023-12-14T01:39:58;42.14;31.63;57.95;;
71805;Laerm;59654;52.216;5.616;2023-12-14T01:40:29;41.83;31.62;57.37;;
71805;Laerm;59654;52.216;5.616;2023-12-14T01:41:00;43.32;32.27;60.45;;
71805;Laerm;59654;52.216;5.616;2023-12-14T01:41:31;42.90;32.04;57.39;;
71805;Laerm;59654;52.216;5.616;2023-12-14T01:42:02;43.75;32.19;57.66;;
71805;Laerm;59654;52.216;5.616;2023-12-14T01:42:32;43.02;31.81;57.61;;
71805;Laerm;59654;52.216;5.616;2023-12-14T01:43:10;41.94;31.66;57.52;;
71805;Laerm;59654;52.216;5.616;2023-12-14T01:43:42;41.36;31.69;60.57;;
71805;Laerm;59654;52.216;5.616;2023-12-14T01:44:13;42.53;31.67;57.60;;
71805;Laerm;59654;52.216;5.616;2023-12-14T01:44:43;42.97;31.23;59.81;;
71805;Laerm;59654;52.216;5.616;2023-12-14T01:45:14;42.74;31.30;60.46;;
71805;Laerm;59654;52.216;5.616;2023-12-14T01:45:46;40.99;31.35;57.48;;
71805;Laerm;59654;52.216;5.616;2023-12-14T01:46:17;42.80;31.86;57.52;;
71805;Laerm;59654;52.216;5.616;2023-12-14T01:46:48;42.00;31.85;57.56;;
71805;Laerm;59654;52.216;5.616;2023-12-14T01:47:19;42.82;31.82;57.52;;
71805;Laerm;59654;52.216;5.616;2023-12-14T01:47:50;42.98;32.18;60.14;;
71805;Laerm;59654;52.216;5.616;2023-12-14T01:48:21;42.77;31.91;57.51;;
71805;Laerm;59654;52.216;5.616;2023-12-14T01:48:52;41.50;31.98;57.66;;
71805;Laerm;59654;52.216;5.616;2023-12-14T01:49:23;42.93;32.00;66.10;;
71805;Laerm;59654;52.216;5.616;2023-12-14T01:49:54;42.23;32.15;60.19;;
71805;Laerm;59654;52.216;5.616;2023-12-14T01:50:25;43.28;32.18;57.77;;
71805;Laerm;59654;52.216;5.616;2023-12-14T01:50:56;42.99;32.53;58.21;;
71805;Laerm;59654;52.216;5.616;2023-12-14T01:51:26;42.82;32.36;57.79;;
71805;Laerm;59654;52.216;5.616;2023-12-14T01:51:57;43.25;32.13;59.86;;
71805;Laerm;59654;52.216;5.616;2023-12-14T01:52:28;43.10;31.86;57.81;;
71805;Laerm;59654;52.216;5.616;2023-12-14T01:52:59;43.37;31.81;57.85;;
71805;Laerm;59654;52.216;5.616;2023-12-14T01:53:30;41.80;31.72;57.76;;
71805;Laerm;59654;52.216;5.616;2023-12-14T01:54:01;43.18;31.46;58.53;;
71805;Laerm;59654;52.216;5.616;2023-12-14T01:54:32;43.54;31.68;60.54;;
71805;Laerm;59654;52.216;5.616;2023-12-14T01:55:04;43.06;32.28;60.60;;
71805;Laerm;59654;52.216;5.616;2023-12-14T01:55:35;43.25;31.88;57.68;;
71805;Laerm;59654;52.216;5.616;2023-12-14T01:56:07;42.94;31.57;58.24;;
71805;Laerm;59654;52.216;5.616;2023-12-14T01:56:38;42.30;31.89;57.85;;
71805;Laerm;59654;52.216;5.616;2023-12-14T01:57:08;43.58;31.65;60.23;;
71805;Laerm;59654;52.216;5.616;2023-12-14T01:57:39;43.30;32.11;57.67;;
71805;Laerm;59654;52.216;5.616;2023-12-14T01:58:10;39.36;32.07;57.53;;
71805;Laerm;59654;52.216;5.616;2023-12-14T01:58:41;42.55;32.13;57.66;;
71805;Laerm;59654;52.216;5.616;2023-12-14T01:59:12;42.84;32.38;60.57;;
71805;Laerm;59654;52.216;5.616;2023-12-14T01:59:43;43.19;32.19;57.85;;
71805;Laerm;59654;52.216;5.616;2023-12-14T02:01:20;41.58;31.77;60.33;;
71805;Laerm;59654;52.216;5.616;2023-12-14T02:01:44;42.57;31.76;57.81;;
71805;Laerm;59654;52.216;5.616;2023-12-14T02:02:14;42.87;31.74;58.65;;
71805;Laerm;59654;52.216;5.616;2023-12-14T02:02:45;43.77;32.99;58.05;;
71805;Laerm;59654;52.216;5.616;2023-12-14T02:03:16;40.69;32.08;57.69;;
71805;Laerm;59654;52.216;5.616;2023-12-14T02:03:51;41.40;32.16;57.70;;
71805;Laerm;59654;52.216;5.616;2023-12-14T02:04:24;43.02;32.31;60.82;;
71805;Laerm;59654;52.216;5.616;2023-12-14T02:04:56;43.29;33.60;57.73;;
71805;Laerm;59654;52.216;5.616;2023-12-14T02:05:27;43.07;33.91;57.67;;
71805;Laerm;59654;52.216;5.616;2023-12-14T02:05:58;42.88;32.82;57.65;;
71805;Laerm;59654;52.216;5.616;2023-12-14T02:06:28;43.43;31.52;60.45;;
71805;Laerm;59654;52.216;5.616;2023-12-14T02:06:59;40.10;31.14;57.63;;
71805;Laerm;59654;52.216;5.616;2023-12-14T02:07:31;42.21;31.41;57.64;;
71805;Laerm;59654;52.216;5.616;2023-12-14T02:08:02;42.93;31.55;60.36;;
71805;Laerm;59654;52.216;5.616;2023-12-14T02:08:33;42.21;31.83;60.59;;
71805;Laerm;59654;52.216;5.616;2023-12-14T02:09:04;43.06;32.25;57.60;;
71805;Laerm;59654;52.216;5.616;2023-12-14T02:09:35;42.27;32.38;57.59;;
71805;Laerm;59654;52.216;5.616;2023-12-14T02:10:07;42.18;32.30;60.53;;
71805;Laerm;59654;52.216;5.616;2023-12-14T02:10:38;41.53;31.91;57.43;;
71805;Laerm;59654;52.216;5.616;2023-12-14T02:11:09;42.32;31.94;60.01;;
71805;Laerm;59654;52.216;5.616;2023-12-14T02:11:40;42.37;31.50;60.36;;
71805;Laerm;59654;52.216;5.616;2023-12-14T02:12:10;42.77;31.87;57.48;;
71805;Laerm;59654;52.216;5.616;2023-12-14T02:12:41;41.17;31.59;57.49;;
71805;Laerm;59654;52.216;5.616;2023-12-14T02:13:12;41.32;31.61;57.48;;
71805;Laerm;59654;52.216;5.616;2023-12-14T02:13:43;41.48;31.81;57.38;;
71805;Laerm;59654;52.216;5.616;2023-12-14T02:14:14;43.33;32.34;58.39;;
71805;Laerm;59654;52.216;5.616;2023-12-14T02:14:45;41.84;32.03;57.46;;
71805;Laerm;59654;52.216;5.616;2023-12-14T02:15:16;41.12;31.30;60.17;;
71805;Laerm;59654;52.216;5.616;2023-12-14T02:15:47;43.46;31.45;57.78;;
71805;Laerm;59654;52.216;5.616;2023-12-14T02:16:18;41.64;31.66;57.46;;
71805;Laerm;59654;52.216;5.616;2023-12-14T02:16:49;41.84;31.40;57.48;;
71805;Laerm;59654;52.216;5.616;2023-12-14T02:17:20;42.41;31.63;57.47;;
71805;Laerm;59654;52.216;5.616;2023-12-14T02:17:50;42.71;31.68;57.51;;
71805;Laerm;59654;52.216;5.616;2023-12-14T02:18:21;43.11;31.62;58.00;;
71805;Laerm;59654;52.216;5.616;2023-12-14T02:18:52;42.08;31.47;57.62;;
71805;Laerm;59654;52.216;5.616;2023-12-14T02:19:23;42.31;31.59;60.44;;
71805;Laerm;59654;52.216;5.616;2023-12-14T02:19:54;41.85;31.35;57.48;;
71805;Laerm;59654;52.216;5.616;2023-12-14T02:20:24;41.67;31.21;60.54;;
71805;Laerm;59654;52.216;5.616;2023-12-14T02:20:55;42.61;31.41;57.47;;
71805;Laerm;59654;52.216;5.616;2023-12-14T02:21:26;43.57;31.48;60.16;;
71805;Laerm;59654;52.216;5.616;2023-12-14T02:21:57;42.84;31.35;60.17;;
71805;Laerm;59654;52.216;5.616;2023-12-14T02:22:48;41.88;31.54;57.55;;
71805;Laerm;59654;52.216;5.616;2023-12-14T02:23:20;45.93;31.65;62.25;;
71805;Laerm;59654;52.216;5.616;2023-12-14T02:23:51;42.30;31.55;57.65;;
71805;Laerm;59654;52.216;5.616;2023-12-14T02:24:22;42.62;31.58;57.60;;
71805;Laerm;59654;52.216;5.616;2023-12-14T02:24:53;40.63;31.83;57.56;;
71805;Laerm;59654;52.216;5.616;2023-12-14T02:25:24;40.36;31.37;57.62;;
71805;Laerm;59654;52.216;5.616;2023-12-14T02:25:55;42.33;31.28;60.55;;
71805;Laerm;59654;52.216;5.616;2023-12-14T02:26:26;42.64;31.53;57.65;;
71805;Laerm;59654;52.216;5.616;2023-12-14T02:26:57;43.54;31.68;60.64;;
71805;Laerm;59654;52.216;5.616;2023-12-14T02:27:28;43.01;31.30;57.72;;
71805;Laerm;59654;52.216;5.616;2023-12-14T02:27:59;42.73;31.04;58.47;;
71805;Laerm;59654;52.216;5.616;2023-12-14T02:28:30;43.21;31.97;57.76;;
71805;Laerm;59654;52.216;5.616;2023-12-14T02:29:01;43.06;32.32;57.78;;
71805;Laerm;59654;52.216;5.616;2023-12-14T02:29:31;42.62;32.00;57.71;;
71805;Laerm;59654;52.216;5.616;2023-12-14T02:30:02;42.68;33.44;57.69;;
71805;Laerm;59654;52.216;5.616;2023-12-14T02:30:33;42.51;32.09;57.67;;
71805;Laerm;59654;52.216;5.616;2023-12-14T02:31:04;41.83;32.46;60.23;;
71805;Laerm;59654;52.216;5.616;2023-12-14T02:31:35;43.16;31.88;60.30;;
71805;Laerm;59654;52.216;5.616;2023-12-14T02:32:06;44.44;32.01;61.29;;
71805;Laerm;59654;52.216;5.616;2023-12-14T02:32:38;41.69;32.53;57.58;;
71805;Laerm;59654;52.216;5.616;2023-12-14T02:33:09;43.01;32.08;57.56;;
71805;Laerm;59654;52.216;5.616;2023-12-14T02:33:40;42.56;31.78;57.58;;
71805;Laerm;59654;52.216;5.616;2023-12-14T02:34:11;42.39;31.97;57.61;;
71805;Laerm;59654;52.216;5.616;2023-12-14T02:34:42;44.19;31.79;60.24;;
71805;Laerm;59654;52.216;5.616;2023-12-14T02:35:13;41.85;32.04;57.74;;
71805;Laerm;59654;52.216;5.616;2023-12-14T02:35:43;41.80;31.69;57.77;;
71805;Laerm;59654;52.216;5.616;2023-12-14T02:36:14;42.35;31.41;57.83;;
71805;Laerm;59654;52.216;5.616;2023-12-14T02:36:45;42.08;31.93;57.80;;
71805;Laerm;59654;52.216;5.616;2023-12-14T02:37:16;43.38;34.11;59.07;;
71805;Laerm;59654;52.216;5.616;2023-12-14T02:37:47;41.92;33.51;57.70;;
71805;Laerm;59654;52.216;5.616;2023-12-14T02:38:18;43.04;32.96;59.75;;
71805;Laerm;59654;52.216;5.616;2023-12-14T02:38:48;43.15;33.54;57.76;;
71805;Laerm;59654;52.216;5.616;2023-12-14T02:39:19;41.88;32.62;59.08;;
71805;Laerm;59654;52.216;5.616;2023-12-14T02:39:50;43.23;32.57;57.79;;
71805;Laerm;59654;52.216;5.616;2023-12-14T02:40:21;42.97;33.41;57.83;;
71805;Laerm;59654;52.216;5.616;2023-12-14T02:40:52;44.57;32.58;57.92;;
71805;Laerm;59654;52.216;5.616;2023-12-14T02:41:23;42.04;32.44;60.12;;
71805;Laerm;59654;52.216;5.616;2023-12-14T02:41:54;42.59;32.25;60.29;;
71805;Laerm;59654;52.216;5.616;2023-12-14T02:42:25;41.00;31.47;57.79;;
71805;Laerm;59654;52.216;5.616;2023-12-14T02:42:56;41.01;31.63;57.75;;
71805;Laerm;59654;52.216;5.616;2023-12-14T02:43:26;43.26;32.31;59.83;;
71805;Laerm;59654;52.216;5.616;2023-12-14T02:43:57;42.93;31.98;57.92;;
71805;Laerm;59654;52.216;5.616;2023-12-14T02:44:28;43.00;32.30;57.91;;
71805;Laerm;59654;52.216;5.616;2023-12-14T02:44:59;42.84;31.76;60.52;;
71805;Laerm;59654;52.216;5.616;2023-12-14T02:45:30;42.70;31.71;57.83;;
71805;Laerm;59654;52.216;5.616;2023-12-14T02:46:01;43.85;31.85;57.99;;
71805;Laerm;59654;52.216;5.616;2023-12-14T02:46:32;43.41;31.43;57.88;;
71805;Laerm;59654;52.216;5.616;2023-12-14T02:47:03;42.79;31.98;59.39;;
71805;Laerm;59654;52.216;5.616;2023-12-14T02:47:35;40.97;31.58;57.86;;
71805;Laerm;59654;52.216;5.616;2023-12-14T02:48:06;42.52;31.62;58.03;;
71805;Laerm;59654;52.216;5.616;2023-12-14T02:48:36;43.23;31.88;57.93;;
71805;Laerm;59654;52.216;5.616;2023-12-14T02:49:08;41.85;31.75;58.01;;
71805;Laerm;59654;52.216;5.616;2023-12-14T02:49:39;44.10;31.78;57.84;;
71805;Laerm;59654;52.216;5.616;2023-12-14T02:50:10;42.04;32.05;57.91;;
71805;Laerm;59654;52.216;5.616;2023-12-14T02:50:41;44.42;32.79;57.94;;
71805;Laerm;59654;52.216;5.616;2023-12-14T02:51:13;43.98;32.73;57.92;;
71805;Laerm;59654;52.216;5.616;2023-12-14T02:51:45;42.94;32.46;57.87;;
71805;Laerm;59654;52.216;5.616;2023-12-14T02:52:16;44.20;32.76;59.28;;
71805;Laerm;59654;52.216;5.616;2023-12-14T02:52:46;42.87;32.33;60.93;;
71805;Laerm;59654;52.216;5.616;2023-12-14T02:53:17;43.44;31.95;57.84;;
71805;Laerm;59654;52.216;5.616;2023-12-14T02:53:48;42.29;32.39;57.95;;
71805;Laerm;59654;52.216;5.616;2023-12-14T02:54:19;41.30;31.89;57.86;;
71805;Laerm;59654;52.216;5.616;2023-12-14T02:54:50;43.61;31.89;60.32;;
71805;Laerm;59654;52.216;5.616;2023-12-14T02:55:20;42.41;31.91;57.81;;
71805;Laerm;59654;52.216;5.616;2023-12-14T02:55:51;43.83;32.84;57.85;;